Time;durP1;ratioP1;P1;durP2;ratioP2;P2;SDS_P1;SDS_P2;PMS_P1;PMS_P2;Temp;Humidity;BMP_temperature;BMP_pressure;BME280_temperature;BME280_humidity;BME280_pressure;Samples;Min_cycle;Max_cycle;Signal;HPM_P1;HPM_P2
2023/09/17 00:00:13;;;;;;;17.60;15.80;;;20.90;99.90;;;;;;4978457;28;20460;-81
2023/09/17 00:02:40;;;;;;;18.20;16.50;;;20.90;99.90;;;;;;4978705;28;20993;-80
2023/09/17 00:05:09;;;;;;;18.07;16.23;;;20.80;99.90;;;;;;4978460;28;20841;-79
2023/09/17 00:07:36;;;;;;;17.70;16.00;;;20.80;99.90;;;;;;4979881;28;20957;-80
2023/09/17 00:10:03;;;;;;;18.43;16.53;;;20.80;99.90;;;;;;4978726;28;20481;-81
2023/09/17 00:12:30;;;;;;;18.93;17.00;;;20.80;99.90;;;;;;4978584;28;20455;-81
2023/09/17 00:14:57;;;;;;;17.40;15.60;;;20.70;99.90;;;;;;4979104;28;20459;-80
2023/09/17 00:17:24;;;;;;;17.23;15.50;;;20.70;99.90;;;;;;4978675;28;20483;-80
2023/09/17 00:19:51;;;;;;;17.20;15.50;;;20.70;99.90;;;;;;4978045;28;20483;-80
2023/09/17 00:22:19;;;;;;;18.20;16.40;;;20.70;99.90;;;;;;4978390;28;20551;-81
2023/09/17 00:24:46;;;;;;;19.40;16.63;;;20.70;99.90;;;;;;4978331;28;20534;-78
2023/09/17 00:27:13;;;;;;;19.20;17.10;;;20.70;99.90;;;;;;4978028;28;20888;-81
2023/09/17 00:29:40;;;;;;;18.60;16.70;;;20.70;99.90;;;;;;4978064;28;20477;-81
2023/09/17 00:32:07;;;;;;;19.67;17.50;;;20.70;99.90;;;;;;4978410;28;20969;-79
2023/09/17 00:34:34;;;;;;;18.00;16.30;;;20.60;99.90;;;;;;4978144;28;20836;-80
2023/09/17 00:37:01;;;;;;;19.03;17.13;;;20.60;99.90;;;;;;4977812;28;20506;-80
2023/09/17 00:39:29;;;;;;;18.90;17.00;;;20.60;99.90;;;;;;4978320;28;20476;-81
2023/09/17 00:41:56;;;;;;;17.83;16.03;;;20.60;99.90;;;;;;4977902;28;20900;-80
2023/09/17 00:44:23;;;;;;;19.63;17.73;;;20.60;99.90;;;;;;4978136;28;20459;-80
2023/09/17 00:46:51;;;;;;;18.43;16.57;;;20.60;99.90;;;;;;4977386;28;20452;-81
2023/09/17 00:49:17;;;;;;;16.27;14.77;;;20.50;99.90;;;;;;4977546;28;21015;-79
2023/09/17 00:51:45;;;;;;;16.40;14.90;;;20.50;99.90;;;;;;4977767;28;20957;-81
2023/09/17 00:54:14;;;;;;;17.00;15.30;;;20.50;99.90;;;;;;4977772;28;20459;-79
2023/09/17 00:56:42;;;;;;;17.83;16.13;;;20.50;99.90;;;;;;4978182;28;20455;-80
2023/09/17 00:59:10;;;;;;;16.97;15.30;;;20.50;99.90;;;;;;4977031;28;21001;-81
2023/09/17 01:01:37;;;;;;;19.70;17.73;;;20.50;99.90;;;;;;4977972;28;20455;-79
2023/09/17 01:04:05;;;;;;;19.03;17.03;;;20.50;99.90;;;;;;4978643;28;20451;-81
2023/09/17 01:06:32;;;;;;;18.27;16.53;;;20.50;99.90;;;;;;4977983;28;20522;-80
2023/09/17 01:09:00;;;;;;;19.67;17.57;;;20.50;99.90;;;;;;4977112;28;20477;-81
2023/09/17 01:11:26;;;;;;;18.13;16.30;;;20.50;99.90;;;;;;4976661;28;20497;-81
2023/09/17 01:14:08;;;;;;;18.47;16.70;;;20.50;99.90;;;;;;4978087;28;20482;-78
2023/09/17 01:16:34;;;;;;;18.30;16.37;;;20.50;99.90;;;;;;4978766;28;20481;-80
2023/09/17 01:19:03;;;;;;;17.10;15.47;;;20.50;99.90;;;;;;4977433;28;20471;-79
2023/09/17 01:21:37;;;;;;;18.43;16.60;;;20.50;99.90;;;;;;4978068;28;20470;-80
2023/09/17 01:24:22;;;;;;;19.43;16.40;;;20.50;99.90;;;;;;4977285;28;21055;-80
2023/09/17 01:27:01;;;;;;;19.10;17.20;;;20.50;99.90;;;;;;4977500;28;20523;-80
2023/09/17 01:29:32;;;;;;;17.80;16.17;;;20.50;99.90;;;;;;4976409;28;21029;-80
2023/09/17 01:31:59;;;;;;;20.20;18.30;;;20.50;99.90;;;;;;4976957;28;20559;-80
2023/09/17 01:34:26;;;;;;;20.77;18.50;;;20.40;99.90;;;;;;4976720;28;20459;-80
2023/09/17 01:36:57;;;;;;;18.50;16.70;;;20.30;99.90;;;;;;4976452;28;20467;-79
2023/09/17 01:39:28;;;;;;;16.47;14.80;;;20.30;99.90;;;;;;4976631;28;20486;-80
2023/09/17 01:41:58;;;;;;;16.87;15.27;;;20.30;99.90;;;;;;4976576;28;20546;-80
2023/09/17 01:44:29;;;;;;;17.50;15.90;;;20.30;99.90;;;;;;4976470;28;20927;-79
2023/09/17 01:46:57;;;;;;;17.17;15.63;;;20.30;99.90;;;;;;4977317;28;20455;-80
2023/09/17 01:49:24;;;;;;;16.90;14.60;;;20.10;99.90;;;;;;4976610;28;20472;-80
2023/09/17 01:51:52;;;;;;;16.47;14.77;;;20.20;99.90;;;;;;4977434;28;20523;-78
2023/09/17 01:54:19;;;;;;;17.73;16.03;;;20.30;99.90;;;;;;4973828;28;20460;-79
2023/09/17 01:56:47;;;;;;;16.23;14.80;;;20.20;99.90;;;;;;4973733;28;20451;-79
2023/09/17 01:59:14;;;;;;;16.50;14.90;;;20.20;99.90;;;;;;4974484;28;20570;-80
2023/09/17 02:01:43;;;;;;;16.33;14.73;;;20.20;99.90;;;;;;4968385;28;20467;-80
2023/09/17 02:04:10;;;;;;;17.53;15.83;;;20.20;99.90;;;;;;4974456;28;20466;-79
2023/09/17 02:06:37;;;;;;;16.00;14.43;;;20.20;99.90;;;;;;4978472;28;20463;-78
2023/09/17 02:09:05;;;;;;;16.30;14.60;;;20.20;99.90;;;;;;4978806;28;20485;-78
2023/09/17 02:11:32;;;;;;;16.57;14.77;;;20.20;99.90;;;;;;4980846;28;20482;-79
2023/09/17 02:13:59;;;;;;;15.37;13.93;;;20.10;99.90;;;;;;4977475;28;20965;-78
2023/09/17 02:16:26;;;;;;;16.53;14.93;;;20.10;99.90;;;;;;4976353;28;20482;-80
2023/09/17 02:18:54;;;;;;;15.67;14.07;;;20.10;99.90;;;;;;4974829;28;20491;-80
2023/09/17 02:21:22;;;;;;;13.60;12.30;;;20.10;99.90;;;;;;4975930;28;20962;-80
2023/09/17 02:23:49;;;;;;;15.50;14.10;;;20.10;99.90;;;;;;4976888;28;20562;-80
2023/09/17 02:26:16;;;;;;;15.20;13.80;;;20.10;99.90;;;;;;4976763;28;20455;-79
2023/09/17 02:28:43;;;;;;;16.30;14.70;;;20.00;99.90;;;;;;4975651;28;20479;-80
2023/09/17 02:31:09;;;;;;;14.67;13.27;;;20.00;99.90;;;;;;4976106;28;20538;-80
2023/09/17 02:33:35;;;;;;;16.00;14.30;;;20.00;99.90;;;;;;4976511;28;20483;-80
2023/09/17 02:36:04;;;;;;;15.50;14.00;;;20.00;99.90;;;;;;4976721;28;20295;-80
2023/09/17 02:38:30;;;;;;;15.53;13.93;;;20.00;99.90;;;;;;4975782;28;20502;-80
2023/09/17 02:40:57;;;;;;;15.50;13.97;;;20.00;99.90;;;;;;4976301;28;20466;-79
2023/09/17 02:43:24;;;;;;;14.87;13.33;;;20.00;99.90;;;;;;4977371;28;20455;-80
2023/09/17 02:45:53;;;;;;;14.80;13.40;;;19.90;99.90;;;;;;4980711;28;20454;-78
2023/09/17 02:48:21;;;;;;;14.67;13.37;;;19.90;99.90;;;;;;4980124;28;20540;-80
2023/09/17 02:50:48;;;;;;;14.83;13.27;;;19.90;99.90;;;;;;4980117;28;20954;-80
2023/09/17 02:53:16;;;;;;;14.50;13.10;;;19.90;99.90;;;;;;4980349;28;20455;-80
2023/09/17 02:55:43;;;;;;;14.67;13.17;;;19.90;99.90;;;;;;4980302;28;20463;-79
2023/09/17 02:58:10;;;;;;;15.00;13.17;;;19.90;99.90;;;;;;4979747;28;20914;-80
2023/09/17 03:00:38;;;;;;;14.17;12.77;;;19.90;99.90;;;;;;4980249;28;20526;-81
2023/09/17 03:03:06;;;;;;;15.20;13.80;;;19.80;99.90;;;;;;4980868;28;20455;-81
2023/09/17 03:05:33;;;;;;;16.67;15.07;;;19.80;99.90;;;;;;4980656;28;20462;-81
2023/09/17 03:08:00;;;;;;;14.40;12.90;;;19.80;99.90;;;;;;4980267;28;20479;-80
2023/09/17 03:10:28;;;;;;;16.10;13.90;;;19.80;99.90;;;;;;4979749;28;20459;-80
2023/09/17 03:12:55;;;;;;;15.43;13.93;;;19.80;99.90;;;;;;4979314;28;20547;-80
2023/09/17 03:15:22;;;;;;;15.53;13.97;;;19.80;99.90;;;;;;4979974;28;20451;-79
2023/09/17 03:17:49;;;;;;;15.53;14.13;;;19.70;99.90;;;;;;4979390;28;20515;-80
2023/09/17 03:20:18;;;;;;;15.77;14.27;;;19.70;99.90;;;;;;4978712;28;20459;-79
2023/09/17 03:22:45;;;;;;;15.47;13.87;;;19.70;99.90;;;;;;4979916;28;20463;-80
2023/09/17 03:25:12;;;;;;;14.83;13.33;;;19.80;99.90;;;;;;4979764;28;20523;-80
2023/09/17 03:27:43;;;;;;;16.10;14.50;;;19.70;99.90;;;;;;4980867;28;20478;-80
2023/09/17 03:30:10;;;;;;;15.07;13.57;;;19.70;99.90;;;;;;4979908;28;20459;-80
2023/09/17 03:32:37;;;;;;;14.87;13.37;;;19.70;99.90;;;;;;4980761;28;20498;-80
2023/09/17 03:35:06;;;;;;;15.43;13.93;;;19.60;99.90;;;;;;4979799;28;20463;-80
2023/09/17 03:37:32;;;;;;;15.70;13.90;;;19.60;99.90;;;;;;4979786;28;20455;-79
2023/09/17 03:40:10;;;;;;;15.37;13.87;;;19.70;99.90;;;;;;4979527;28;20486;-80
2023/09/17 03:42:37;;;;;;;14.50;13.17;;;19.60;99.90;;;;;;4972548;28;20467;-79
2023/09/17 03:45:09;;;;;;;17.13;15.43;;;19.60;99.90;;;;;;4979704;28;20538;-80
2023/09/17 03:47:37;;;;;;;15.53;14.03;;;19.60;99.90;;;;;;4971359;28;20459;-80
2023/09/17 03:50:05;;;;;;;15.93;14.33;;;19.70;99.90;;;;;;4978830;28;20460;-80
2023/09/17 03:52:33;;;;;;;17.30;15.50;;;19.60;99.90;;;;;;4971547;28;20562;-81
2023/09/17 03:55:01;;;;;;;15.77;14.27;;;19.60;99.90;;;;;;4978738;28;20451;-80
2023/09/17 03:57:29;;;;;;;14.03;12.73;;;19.60;99.90;;;;;;4978957;28;20470;-79
2023/09/17 03:59:55;;;;;;;18.17;15.87;;;19.70;99.90;;;;;;4978910;28;20485;-79
2023/09/17 04:02:24;;;;;;;18.23;16.43;;;19.60;99.90;;;;;;4979358;28;20538;-79
2023/09/17 04:04:51;;;;;;;17.23;15.43;;;19.60;99.90;;;;;;4979985;28;20851;-80
2023/09/17 04:07:18;;;;;;;16.10;14.50;;;19.60;99.90;;;;;;4979007;28;20482;-81
2023/09/17 04:09:45;;;;;;;16.87;15.20;;;19.50;99.90;;;;;;4978195;28;20481;-80
2023/09/17 04:12:12;;;;;;;17.33;15.63;;;19.50;99.90;;;;;;4978685;28;20976;-79
2023/09/17 04:14:38;;;;;;;17.53;15.83;;;19.50;99.90;;;;;;4979155;28;20477;-80
2023/09/17 04:17:06;;;;;;;16.50;14.90;;;19.50;99.90;;;;;;4978966;28;20451;-80
2023/09/17 04:19:34;;;;;;;18.10;16.20;;;19.50;99.90;;;;;;4978389;28;20546;-80
2023/09/17 04:22:02;;;;;;;16.70;15.00;;;19.50;99.90;;;;;;4979139;28;20466;-80
2023/09/17 04:24:29;;;;;;;18.60;16.80;;;19.40;99.90;;;;;;4978025;28;20455;-80
2023/09/17 04:26:57;;;;;;;17.23;15.23;;;19.40;99.90;;;;;;4978277;28;20451;-78
2023/09/17 04:29:24;;;;;;;17.73;16.17;;;19.40;99.90;;;;;;4978052;28;20831;-80
2023/09/17 04:31:52;;;;;;;16.33;14.73;;;19.40;99.90;;;;;;4978219;28;20470;-80
2023/09/17 04:34:20;;;;;;;17.43;15.60;;;19.40;99.90;;;;;;4978088;28;20965;-80
2023/09/17 04:36:48;;;;;;;17.50;15.37;;;19.40;99.90;;;;;;4978365;28;20490;-80
2023/09/17 04:39:16;;;;;;;18.50;15.67;;;19.40;99.90;;;;;;4977262;28;20499;-80
2023/09/17 04:41:43;;;;;;;15.90;14.40;;;19.40;99.90;;;;;;4977822;28;20837;-79
2023/09/17 04:44:10;;;;;;;16.53;14.90;;;19.30;99.90;;;;;;4977990;28;20466;-80
2023/09/17 04:46:39;;;;;;;17.13;15.33;;;19.30;99.90;;;;;;4977704;28;20901;-79
2023/09/17 04:49:06;;;;;;;19.43;17.43;;;19.30;99.90;;;;;;4976709;28;20511;-80
2023/09/17 04:51:33;;;;;;;19.53;17.50;;;19.20;99.90;;;;;;4977558;28;20471;-81
2023/09/17 04:54:01;;;;;;;17.83;15.67;;;19.20;99.90;;;;;;4977387;28;20460;-81
2023/09/17 04:56:28;;;;;;;20.07;18.13;;;19.10;99.90;;;;;;4978527;28;20451;-81
2023/09/17 04:58:55;;;;;;;18.23;16.43;;;19.20;99.90;;;;;;4977663;28;20494;-80
2023/09/17 05:01:25;;;;;;;18.93;17.03;;;19.20;99.90;;;;;;4977550;28;20470;-81
2023/09/17 05:03:52;;;;;;;17.40;15.70;;;19.20;99.90;;;;;;4977489;28;20460;-79
2023/09/17 05:06:18;;;;;;;19.03;17.07;;;19.20;99.90;;;;;;4979049;28;20455;-80
2023/09/17 05:08:45;;;;;;;18.17;16.40;;;19.10;99.90;;;;;;4979131;28;20856;-80
2023/09/17 05:11:13;;;;;;;18.73;16.93;;;19.20;99.90;;;;;;4980111;28;20475;-81
2023/09/17 05:13:40;;;;;;;20.23;18.37;;;19.10;99.90;;;;;;4981692;28;20461;-80
2023/09/17 05:16:07;;;;;;;19.40;17.40;;;19.10;99.90;;;;;;4981008;28;20457;-81
2023/09/17 05:18:34;;;;;;;19.20;17.30;;;19.10;99.90;;;;;;4978169;28;20495;-81
2023/09/17 05:21:00;;;;;;;19.10;17.30;;;19.10;99.90;;;;;;4979452;28;20463;-81
2023/09/17 05:23:27;;;;;;;19.83;18.03;;;19.20;99.90;;;;;;4978463;28;20469;-81
2023/09/17 05:25:55;;;;;;;23.40;20.70;;;19.10;99.90;;;;;;4979668;28;20503;-81
2023/09/17 05:28:23;;;;;;;18.40;16.60;;;19.10;99.90;;;;;;4973823;28;20483;-80
2023/09/17 05:30:50;;;;;;;18.77;17.03;;;19.10;99.90;;;;;;4977822;28;20848;-81
2023/09/17 05:33:17;;;;;;;18.87;17.03;;;19.10;99.90;;;;;;4977735;28;20451;-82
2023/09/17 05:35:44;;;;;;;18.10;16.20;;;19.00;99.90;;;;;;4976593;28;20543;-83
2023/09/17 05:38:11;;;;;;;21.63;19.37;;;19.00;99.90;;;;;;4973844;28;20483;-81
2023/09/17 05:40:38;;;;;;;23.07;18.83;;;19.00;99.90;;;;;;4972300;28;20463;-82
2023/09/17 05:43:05;;;;;;;22.77;20.57;;;19.00;99.90;;;;;;4977889;28;20554;-80
2023/09/17 05:45:33;;;;;;;23.70;21.30;;;19.00;99.90;;;;;;4974419;28;20485;-83
2023/09/17 05:48:00;;;;;;;22.63;20.43;;;19.00;99.90;;;;;;4977793;28;20506;-80
2023/09/17 05:50:27;;;;;;;23.23;20.97;;;19.10;99.90;;;;;;4974534;28;20482;-80
2023/09/17 05:52:54;;;;;;;22.63;20.33;;;19.00;99.90;;;;;;4977382;28;20455;-81
2023/09/17 05:55:20;;;;;;;20.67;18.53;;;19.00;99.90;;;;;;4974767;28;20892;-81
2023/09/17 05:57:47;;;;;;;22.37;20.03;;;19.00;99.90;;;;;;4975578;28;20463;-81
2023/09/17 06:00:15;;;;;;;23.83;21.43;;;19.10;99.90;;;;;;4971659;28;20497;-80
2023/09/17 06:02:44;;;;;;;22.37;20.27;;;19.10;99.90;;;;;;4973046;28;20463;-80
2023/09/17 06:05:11;;;;;;;23.60;21.17;;;19.10;99.90;;;;;;4976273;28;20891;-80
2023/09/17 06:07:38;;;;;;;22.43;20.10;;;19.10;99.90;;;;;;4975546;28;20834;-81
2023/09/17 06:10:05;;;;;;;22.47;20.23;;;19.10;99.90;;;;;;4977700;28;20531;-81
2023/09/17 06:12:32;;;;;;;21.93;19.73;;;19.20;99.90;;;;;;4977371;28;20459;-80
2023/09/17 06:14:59;;;;;;;23.30;21.10;;;19.20;99.90;;;;;;4977550;28;20526;-80
2023/09/17 06:17:26;;;;;;;24.50;21.90;;;19.20;99.90;;;;;;4978592;28;20458;-80
2023/09/17 06:19:54;;;;;;;26.57;23.90;;;19.20;99.90;;;;;;4975229;28;20533;-80
2023/09/17 06:22:21;;;;;;;24.30;21.83;;;19.30;99.90;;;;;;4971521;28;20460;-79
2023/09/17 06:24:47;;;;;;;24.60;22.13;;;19.30;99.90;;;;;;4977489;28;20969;-80
2023/09/17 06:27:14;;;;;;;25.83;23.20;;;19.30;99.90;;;;;;4980761;28;20493;-79
2023/09/17 06:29:41;;;;;;;25.73;22.50;;;19.40;99.90;;;;;;4983984;28;20471;-80
2023/09/17 06:32:08;;;;;;;23.40;20.90;;;19.40;99.90;;;;;;4988693;28;20759;-78
2023/09/17 06:34:35;;;;;;;23.87;21.50;;;19.40;99.90;;;;;;4988919;28;20463;-81
2023/09/17 06:37:04;;;;;;;26.37;23.60;;;19.40;99.90;;;;;;4984563;28;20722;-81
2023/09/17 06:39:31;;;;;;;24.97;22.37;;;19.40;99.90;;;;;;4984556;28;20872;-81
2023/09/17 06:41:58;;;;;;;26.03;22.83;;;19.40;99.90;;;;;;4985020;28;20965;-81
2023/09/17 06:44:25;;;;;;;23.37;21.00;;;19.40;99.90;;;;;;4987650;28;20494;-80
2023/09/17 06:46:51;;;;;;;24.50;22.20;;;19.50;99.90;;;;;;4988810;28;20451;-80
2023/09/17 06:49:18;;;;;;;26.27;23.57;;;19.50;99.90;;;;;;4985195;28;20906;-80
2023/09/17 06:51:45;;;;;;;25.37;22.73;;;19.50;99.90;;;;;;4984856;28;20457;-80
2023/09/17 06:54:13;;;;;;;27.10;24.30;;;19.60;99.90;;;;;;4985245;28;20491;-81
2023/09/17 06:56:40;;;;;;;25.30;22.80;;;19.60;99.90;;;;;;4984718;28;20463;-81
2023/09/17 06:59:07;;;;;;;25.57;22.90;;;19.70;99.90;;;;;;4984630;28;20501;-80
2023/09/17 07:01:34;;;;;;;25.87;23.17;;;19.80;99.90;;;;;;4977222;28;20446;-80
2023/09/17 07:04:01;;;;;;;24.03;21.67;;;19.80;99.90;;;;;;4983837;28;20534;-80
2023/09/17 07:06:27;;;;;;;25.97;23.27;;;19.90;99.90;;;;;;4983869;28;21003;-79
2023/09/17 07:08:55;;;;;;;25.93;23.60;;;19.90;99.90;;;;;;4979508;28;21035;-80
2023/09/17 07:11:23;;;;;;;30.20;27.20;;;20.00;99.90;;;;;;4974670;28;20457;-79
2023/09/17 07:13:50;;;;;;;26.13;23.40;;;20.00;99.90;;;;;;4975809;28;20524;-78
2023/09/17 07:16:18;;;;;;;26.17;23.67;;;20.10;99.90;;;;;;4984907;28;20451;-80
2023/09/17 07:18:45;;;;;;;24.87;22.47;;;20.20;99.90;;;;;;4981768;28;20487;-80
2023/09/17 07:21:12;;;;;;;23.20;21.00;;;20.30;99.90;;;;;;4990823;28;20482;-80
2023/09/17 07:23:38;;;;;;;25.63;23.00;;;20.40;99.90;;;;;;4988963;28;20465;-82
2023/09/17 07:26:06;;;;;;;23.77;21.37;;;20.40;99.90;;;;;;4977657;28;20463;-80
2023/09/17 07:28:37;;;;;;;23.13;21.00;;;20.50;99.90;;;;;;4977894;28;20491;-78
2023/09/17 07:31:07;;;;;;;23.07;20.67;;;20.60;99.90;;;;;;4984212;28;20487;-78
2023/09/17 07:33:34;;;;;;;22.33;20.13;;;20.70;99.90;;;;;;4981872;28;20443;-78
2023/09/17 07:36:01;;;;;;;20.80;18.60;;;20.80;99.90;;;;;;4983954;28;20448;-79
2023/09/17 07:38:28;;;;;;;21.03;18.90;;;20.90;99.90;;;;;;4978459;28;20488;-80
2023/09/17 07:40:54;;;;;;;20.77;18.67;;;20.90;99.90;;;;;;4976457;28;20574;-79
2023/09/17 07:43:21;;;;;;;18.10;16.23;;;21.00;99.90;;;;;;4976035;28;20515;-79
2023/09/17 07:45:50;;;;;;;21.10;18.80;;;21.00;99.90;;;;;;4970803;28;20455;-79
2023/09/17 07:48:16;;;;;;;20.73;18.63;;;21.10;99.90;;;;;;4976173;28;20566;-78
2023/09/17 07:50:43;;;;;;;18.83;16.97;;;21.10;99.90;;;;;;4977475;28;20876;-80
2023/09/17 07:53:10;;;;;;;18.50;16.70;;;21.20;99.90;;;;;;4975060;28;20462;-80
2023/09/17 07:55:37;;;;;;;19.13;17.40;;;21.20;99.90;;;;;;4969051;28;20451;-80
2023/09/17 07:58:04;;;;;;;17.80;15.90;;;21.30;99.90;;;;;;4973721;28;20471;-79
2023/09/17 08:00:31;;;;;;;14.27;12.87;;;21.30;99.90;;;;;;4973893;28;20522;-77
2023/09/17 08:02:59;;;;;;;16.20;14.70;;;21.40;99.90;;;;;;4977668;28;20481;-78
2023/09/17 08:05:26;;;;;;;16.60;14.90;;;21.50;99.90;;;;;;4969317;28;20452;-78
2023/09/17 08:07:53;;;;;;;16.57;15.00;;;21.50;99.90;;;;;;4977453;28;20475;-78
2023/09/17 08:10:21;;;;;;;16.70;15.10;;;21.50;99.90;;;;;;4976585;28;20468;-79
2023/09/17 08:12:48;;;;;;;15.40;13.90;;;21.50;99.90;;;;;;4970228;28;20506;-78
2023/09/17 08:15:17;;;;;;;13.70;12.43;;;21.60;99.90;;;;;;4977048;28;20460;-79
2023/09/17 08:17:43;;;;;;;10.30;9.40;;;21.60;99.90;;;;;;4972755;28;20467;-78
2023/09/17 08:20:12;;;;;;;7.90;7.20;;;21.60;99.90;;;;;;4975953;28;20494;-79
2023/09/17 08:22:39;;;;;;;9.50;8.60;;;21.50;99.90;;;;;;4973405;28;20459;-81
2023/09/17 08:25:08;;;;;;;8.87;8.03;;;21.60;99.90;;;;;;4973464;28;20483;-78
2023/09/17 08:27:35;;;;;;;8.87;8.00;;;21.70;99.90;;;;;;4972881;28;20550;-79
2023/09/17 08:30:07;;;;;;;8.00;7.20;;;21.70;99.90;;;;;;4979268;28;20914;-78
2023/09/17 08:32:34;;;;;;;7.97;7.27;;;21.70;99.90;;;;;;4970468;28;20444;-80
2023/09/17 08:35:01;;;;;;;8.40;7.60;;;21.70;99.90;;;;;;4985601;28;20460;-79
2023/09/17 08:37:29;;;;;;;7.20;6.50;;;21.80;99.90;;;;;;4967363;28;20979;-79
2023/09/17 08:39:56;;;;;;;6.83;6.13;;;21.80;99.90;;;;;;4963153;28;20492;-78
2023/09/17 08:42:23;;;;;;;8.07;5.83;;;21.80;99.90;;;;;;4974970;28;20463;-78
2023/09/17 08:44:51;;;;;;;6.43;5.83;;;21.70;99.90;;;;;;4976420;28;20926;-78
2023/09/17 08:47:18;;;;;;;5.97;5.47;;;21.80;99.90;;;;;;4975996;28;20465;-79
2023/09/17 08:49:44;;;;;;;5.93;5.23;;;21.90;99.90;;;;;;4976756;28;20478;-78
2023/09/17 08:52:12;;;;;;;4.87;4.47;;;21.90;99.90;;;;;;4977486;28;20539;-79
2023/09/17 08:54:42;;;;;;;6.07;5.10;;;22.00;99.90;;;;;;4976981;28;20558;-79
2023/09/17 08:57:11;;;;;;;6.63;5.27;;;22.00;99.90;;;;;;4977249;28;20451;-79
2023/09/17 08:59:41;;;;;;;5.83;5.23;;;22.10;99.90;;;;;;4976756;28;20858;-79
2023/09/17 09:02:16;;;;;;;8.33;5.57;;;22.20;99.90;;;;;;4969314;28;20460;-79
2023/09/17 09:04:47;;;;;;;7.20;6.50;;;22.20;99.90;;;;;;4972633;28;20904;-78
2023/09/17 09:07:15;;;;;;;8.70;7.77;;;22.30;99.90;;;;;;4970577;28;20850;-79
2023/09/17 09:09:46;;;;;;;5.30;4.80;;;22.50;99.90;;;;;;4978314;28;21009;-79
2023/09/17 09:12:14;;;;;;;6.00;5.20;;;22.50;99.90;;;;;;4979435;28;20945;-79
2023/09/17 09:14:43;;;;;;;9.17;4.97;;;22.60;99.90;;;;;;4977413;28;20552;-78
2023/09/17 09:17:12;;;;;;;4.73;4.33;;;22.60;99.90;;;;;;4976380;28;20460;-79
2023/09/17 09:19:40;;;;;;;5.50;4.93;;;22.80;99.90;;;;;;4976197;28;20487;-79
2023/09/17 09:22:07;;;;;;;5.50;4.73;;;22.80;99.90;;;;;;4977971;28;20459;-79
2023/09/17 09:24:45;;;;;;;4.17;3.87;;;22.90;99.90;;;;;;4971046;28;20470;-79
2023/09/17 09:27:13;;;;;;;5.50;5.00;;;23.20;99.90;;;;;;4977194;28;20542;-79
2023/09/17 09:29:42;;;;;;;7.40;4.20;;;23.40;99.90;;;;;;4971439;28;20479;-79
2023/09/17 09:32:10;;;;;;;4.60;4.20;;;23.50;99.00;;;;;;4977101;28;20542;-79
2023/09/17 09:34:37;;;;;;;5.20;4.80;;;23.60;99.90;;;;;;4971148;28;20455;-80
2023/09/17 09:37:06;;;;;;;4.70;4.30;;;23.80;99.90;;;;;;4976786;28;20455;-78
2023/09/17 09:39:35;;;;;;;5.33;4.93;;;24.10;99.90;;;;;;4971492;28;20573;-79
2023/09/17 09:42:05;;;;;;;4.57;4.13;;;24.40;99.90;;;;;;4977205;28;20522;-78
2023/09/17 09:44:32;;;;;;;3.77;3.47;;;24.50;20.60;;;;;;4970719;28;20452;-78
2023/09/17 09:47:02;;;;;;;3.67;3.37;;;24.50;14.80;;;;;;4976605;28;20463;-78
2023/09/17 09:49:29;;;;;;;3.60;3.17;;;24.50;1.00;;;;;;4970209;28;20483;-78
2023/09/17 09:51:59;;;;;;;3.30;3.00;;;24.60;1.00;;;;;;4975258;28;20522;-79
2023/09/17 09:54:26;;;;;;;4.50;3.07;;;24.60;1.00;;;;;;4965286;28;20882;-79
2023/09/17 09:56:53;;;;;;;4.00;3.70;;;24.70;1.00;;;;;;4962373;28;20525;-78
2023/09/17 09:59:22;;;;;;;4.77;3.87;;;24.80;2.10;;;;;;4970665;28;20507;-78
2023/09/17 10:01:50;;;;;;;4.00;3.60;;;24.90;1.00;;;;;;4971505;28;20464;-78
2023/09/17 10:04:23;;;;;;;5.57;3.80;;;25.10;1.00;;;;;;4973588;28;20595;-79
2023/09/17 10:06:50;;;;;;;3.90;3.50;;;25.30;1.00;;;;;;4971469;28;20457;-81
2023/09/17 10:09:18;;;;;;;3.90;3.50;;;25.80;1.00;;;;;;4973604;28;20558;-77
2023/09/17 10:11:45;;;;;;;5.60;2.80;;;25.60;99.90;;;;;;4975822;28;20550;-78
2023/09/17 10:14:12;;;;;;;4.13;3.30;;;25.40;99.90;;;;;;4976512;28;20474;-79
2023/09/17 10:16:41;;;;;;;4.47;3.10;;;25.20;1.00;;;;;;4972949;28;20467;-78
2023/09/17 10:19:10;;;;;;;3.53;3.23;;;25.30;1.00;;;;;;4964682;28;20531;-78
2023/09/17 10:21:39;;;;;;;3.70;3.20;;;25.80;1.00;;;;;;4976023;28;20498;-80
2023/09/17 10:24:07;;;;;;;4.60;3.33;;;26.20;1.00;;;;;;4972434;28;20451;-79
2023/09/17 10:26:41;;;;;;;3.70;3.00;;;26.60;99.90;;;;;;4969030;28;20522;-79
2023/09/17 10:29:10;;;;;;;4.17;3.07;;;27.10;99.90;;;;;;4967633;28;20471;-77
2023/09/17 10:31:37;;;;;;;3.47;3.17;;;27.40;1.00;;;;;;4971464;28;20898;-77
2023/09/17 10:34:06;;;;;;;4.57;3.00;;;27.80;14.10;;;;;;4974716;28;20447;-77
2023/09/17 10:36:39;;;;;;;4.30;3.00;;;27.50;1.00;;;;;;4972616;28;20542;-77
2023/09/17 10:39:07;;;;;;;3.73;3.17;;;27.40;1.00;;;;;;4970770;28;20565;-78
2023/09/17 10:41:37;;;;;;;4.50;3.17;;;27.30;99.90;;;;;;4964164;28;20495;-77
2023/09/17 10:44:05;;;;;;;5.43;3.23;;;27.60;99.90;;;;;;4973356;28;20897;-77
2023/09/17 10:46:33;;;;;;;4.57;2.80;;;27.70;99.90;;;;;;4968992;28;20915;-76
2023/09/17 10:49:01;;;;;;;4.27;2.77;;;28.00;19.30;;;;;;4974496;28;20555;-77
2023/09/17 10:51:29;;;;;;;3.70;2.90;;;28.30;53.90;;;;;;4984195;28;20971;-77
2023/09/17 10:53:56;;;;;;;3.40;2.90;;;28.50;99.90;;;;;;4977247;28;20544;-78
2023/09/17 10:56:24;;;;;;;4.10;2.50;;;28.60;1.00;;;;;;4973189;28;21033;-77
2023/09/17 10:58:52;;;;;;;3.87;2.90;;;28.90;99.90;;;;;;4966823;28;20487;-77
2023/09/17 11:01:24;;;;;;;3.80;2.50;;;29.20;1.00;;;;;;4973289;28;20554;-77
2023/09/17 11:03:58;;;;;;;3.97;2.60;;;29.50;99.90;;;;;;4963057;28;20483;-77
2023/09/17 11:06:26;;;;;;;3.87;3.20;;;29.60;99.90;;;;;;4976679;28;20491;-77
2023/09/17 11:08:55;;;;;;;3.80;2.93;;;29.50;28.50;;;;;;4969171;28;21084;-78
2023/09/17 11:11:24;;;;;;;3.50;3.00;;;29.40;99.90;;;;;;4978490;28;20534;-77
2023/09/17 11:13:53;;;;;;;5.13;3.60;;;28.80;99.90;;;;;;4976880;28;20461;-77
2023/09/17 11:16:21;;;;;;;3.27;2.50;;;28.40;99.90;;;;;;4977490;28;20459;-77
2023/09/17 11:19:06;;;;;;;3.33;2.60;;;28.00;99.90;;;;;;4977334;28;20859;-77
2023/09/17 11:21:35;;;;;;;5.63;3.40;;;27.60;1.00;;;;;;4976722;28;20962;-77
2023/09/17 11:24:06;;;;;;;3.30;2.70;;;27.70;1.00;;;;;;4978880;28;20451;-78
2023/09/17 11:26:37;;;;;;;4.60;3.50;;;28.00;1.00;;;;;;4978285;28;20523;-78
2023/09/17 11:29:06;;;;;;;3.63;3.10;;;28.30;1.00;;;;;;4970364;28;20534;-78
2023/09/17 11:31:36;;;;;;;3.43;2.70;;;28.90;40.70;;;;;;4976513;28;20451;-78
2023/09/17 11:34:06;;;;;;;3.77;3.10;;;29.20;99.90;;;;;;4972826;28;20453;-77
2023/09/17 11:36:34;;;;;;;3.27;2.97;;;29.40;1.00;;;;;;4970815;28;20447;-78
2023/09/17 11:39:07;;;;;;;3.83;2.97;;;29.10;99.90;;;;;;4978164;28;20467;-78
2023/09/17 11:41:36;;;;;;;4.17;3.27;;;29.00;1.00;;;;;;4977926;28;20483;-78
2023/09/17 11:44:04;;;;;;;3.70;3.00;;;29.00;1.00;;;;;;4977323;28;20460;-78
2023/09/17 11:46:37;;;;;;;3.40;2.80;;;28.80;99.90;;;;;;4977359;28;20692;-80
2023/09/17 11:49:04;;;;;;;5.30;3.57;;;28.40;99.90;;;;;;4974598;28;20515;-79
2023/09/17 11:51:32;;;;;;;3.43;2.77;;;28.00;99.90;;;;;;4979112;28;20860;-78
2023/09/17 11:54:01;;;;;;;3.97;3.10;;;27.70;1.00;;;;;;4978920;28;20456;-78
2023/09/17 11:56:31;;;;;;;5.30;3.27;;;27.80;28.20;;;;;;4978215;28;21013;-80
2023/09/17 11:59:06;;;;;;;5.10;3.20;;;28.20;99.90;;;;;;4975911;28;20487;-79
2023/09/17 12:01:35;;;;;;;3.93;3.10;;;28.50;36.00;;;;;;4979524;28;20581;-78
2023/09/17 12:04:05;;;;;;;3.80;3.07;;;28.80;99.90;;;;;;4978966;28;20464;-79
2023/09/17 12:06:36;;;;;;;3.53;3.00;;;29.50;99.90;;;;;;4979293;28;20854;-78
2023/09/17 12:09:10;;;;;;;4.47;3.40;;;29.70;63.90;;;;;;4978565;28;20486;-78
2023/09/17 12:11:39;;;;;;;3.97;3.20;;;30.00;99.90;;;;;;4979336;28;20463;-79
2023/09/17 12:14:07;;;;;;;3.43;2.93;;;30.10;1.00;;;;;;4976880;28;20550;-78
2023/09/17 12:16:34;;;;;;;3.50;3.00;;;29.60;1.00;;;;;;4981621;28;20467;-79
2023/09/17 12:19:02;;;;;;;7.37;3.83;;;30.10;44.20;;;;;;4979789;28;20479;-79
2023/09/17 12:21:31;;;;;;;6.00;3.50;;;30.30;1.00;;;;;;4979339;28;20487;-79
2023/09/17 12:24:04;;;;;;;5.30;3.80;;;30.70;13.60;;;;;;4971143;28;20970;-79
2023/09/17 12:26:37;;;;;;;3.90;3.50;;;30.70;1.00;;;;;;4976179;28;20460;-79
2023/09/17 12:29:10;;;;;;;5.73;3.50;;;30.60;99.90;;;;;;4972585;28;20536;-79
2023/09/17 12:31:38;;;;;;;3.50;3.20;;;30.90;48.50;;;;;;4969968;28;20455;-78
2023/09/17 12:34:05;;;;;;;3.60;3.10;;;31.20;1.00;;;;;;4971975;28;20832;-80
2023/09/17 12:36:32;;;;;;;4.83;3.03;;;31.40;1.00;;;;;;4971708;28;21122;-79
2023/09/17 12:39:00;;;;;;;5.80;3.30;;;31.50;99.90;;;;;;4966918;28;20503;-79